Airfield :
LOGIN :

Register | Disclaimer

   EN    FR    IT 

 










Legend :    VFR   Marginal VFR   IFR   Intensive IFR   Very Intensive IFR
Visi :
Ceiling :
>= 8 km
>= 3000ft
5 to 8 km
1000 to 3000 ft
1500m to 5 km
500 to 1000 ft
800 to 1500m
200 to 500 ft
< 800m
< 200 ft
Symbols :   Thunderstorms  Fog  Heavy snow  Heavy precipitations  Wind > 20 kt
SIGMETs :     Misc.  Thunderstorms  Icing  Turbulence  Mountain Waves  Volcanic Ashes






- Airport Elevation : 220 ft
- IATA code : CWL


EGFF - Cardiff Rhoose

CURRENT METAR :
  • 232350Z AUTO 19004KT 7000 BKN008 11/11 Q1006

EXPIRED METARs :
  • 232320Z AUTO 20005KT 170V230 6000 BKN008 BKN018 BKN022 11/11 Q1006
  • 232250Z AUTO VRB02KT 7000 FEW007 BKN013 OVC020 11/11 Q1006
  • 232220Z AUTO VRB03KT 6000 SCT009 BKN013 OVC018 11/11 Q1006
  • 232150Z AUTO 13003KT 7000 SCT006 OVC014 11/11 Q1006
  • 232120Z AUTO 14006KT 4200 BR SCT006 11/10 Q1007

TAF TAF EGFF
Valid from the 24 at 00:00 until the 25 at 00:00 UTC


232304Z 2400/2424 14004KT 6000 FEW006
TEMPO 2400/2406 3000 BR BKN006
PROB30
TEMPO 2400/2406 BKN004
BECMG 2406/2409 BKN010
PROB30
TEMPO 2406/2410 4000 RA BKN008
BECMG 2410/2412 28012KT 9999 SCT025
TEMPO 2412/2424 26015G25KT 6000 SHRA
ATIS : +44 1446 729 319



MET'MAP, your aeronautical weather chart ! - Copyright ORBIFLY December 2007 - Disclaimer

ORBIFLY MET'MAP TEAM :

Programming & Development : Alexandra Zaïnal
Concept & Development : Baudouin d'Aumeries
Co-Development & Prog : Marc-Olivier Méhu
Technical & hardware support : Manuel Goepfert

Contact : metmap@orbifly.com




SOURCES & CREDITS :

   NOAA